sensor_id;sensor_type;location;lat;lon;timestamp;temperature;humidity
78514;SHT31;67814;51.976;5.810;2023-04-03T00:01:57;6.4;55.6
78514;SHT31;67814;51.976;5.810;2023-04-03T00:04:27;6.4;55.6
78514;SHT31;67814;51.976;5.810;2023-04-03T00:06:57;6.4;55.8
78514;SHT31;67814;51.976;5.810;2023-04-03T00:09:27;6.3;56.6
78514;SHT31;67814;51.976;5.810;2023-04-03T00:11:56;6.3;56.4
78514;SHT31;67814;51.976;5.810;2023-04-03T00:14:26;6.3;56.1
78514;SHT31;67814;51.976;5.810;2023-04-03T00:16:56;6.3;55.9
78514;SHT31;67814;51.976;5.810;2023-04-03T00:19:26;6.3;55.8
78514;SHT31;67814;51.976;5.810;2023-04-03T00:21:55;6.3;56.2
78514;SHT31;67814;51.976;5.810;2023-04-03T00:24:25;6.3;55.8
78514;SHT31;67814;51.976;5.810;2023-04-03T00:26:55;6.2;56.0
78514;SHT31;67814;51.976;5.810;2023-04-03T00:29:24;6.2;56.2
78514;SHT31;67814;51.976;5.810;2023-04-03T00:31:54;6.2;56.2
78514;SHT31;67814;51.976;5.810;2023-04-03T00:34:24;6.2;56.1
78514;SHT31;67814;51.976;5.810;2023-04-03T00:36:53;6.2;56.4
78514;SHT31;67814;51.976;5.810;2023-04-03T00:39:23;6.2;56.2
78514;SHT31;67814;51.976;5.810;2023-04-03T00:41:53;6.2;56.2
78514;SHT31;67814;51.976;5.810;2023-04-03T00:47:18;6.1;56.5
78514;SHT31;67814;51.976;5.810;2023-04-03T00:49:49;6.1;56.4
78514;SHT31;67814;51.976;5.810;2023-04-03T00:52:25;6.1;56.9
78514;SHT31;67814;51.976;5.810;2023-04-03T00:54:59;6.1;57.2
78514;SHT31;67814;51.976;5.810;2023-04-03T00:57:31;6.0;57.6
78514;SHT31;67814;51.976;5.810;2023-04-03T01:00:05;6.0;57.3
78514;SHT31;67814;51.976;5.810;2023-04-03T01:02:37;6.0;57.3
78514;SHT31;67814;51.976;5.810;2023-04-03T01:05:08;6.0;57.4
78514;SHT31;67814;51.976;5.810;2023-04-03T01:07:39;6.0;58.2
78514;SHT31;67814;51.976;5.810;2023-04-03T01:10:11;6.0;58.2
78514;SHT31;67814;51.976;5.810;2023-04-03T01:12:45;6.0;57.9
78514;SHT31;67814;51.976;5.810;2023-04-03T01:15:17;5.9;58.1
78514;SHT31;67814;51.976;5.810;2023-04-03T01:17:50;5.9;57.7
78514;SHT31;67814;51.976;5.810;2023-04-03T01:21:59;5.9;58.3
78514;SHT31;67814;51.976;5.810;2023-04-03T01:24:35;5.9;58.4
78514;SHT31;67814;51.976;5.810;2023-04-03T01:27:09;5.9;59.0
78514;SHT31;67814;51.976;5.810;2023-04-03T01:29:40;5.9;58.9
78514;SHT31;67814;51.976;5.810;2023-04-03T01:32:11;5.8;58.6
78514;SHT31;67814;51.976;5.810;2023-04-03T01:34:40;5.8;58.8
78514;SHT31;67814;51.976;5.810;2023-04-03T01:37:10;5.8;58.8
78514;SHT31;67814;51.976;5.810;2023-04-03T01:39:40;5.8;59.0
78514;SHT31;67814;51.976;5.810;2023-04-03T01:42:09;5.7;59.5
78514;SHT31;67814;51.976;5.810;2023-04-03T01:44:39;5.7;59.6
78514;SHT31;67814;51.976;5.810;2023-04-03T01:47:09;5.7;59.6
78514;SHT31;67814;51.976;5.810;2023-04-03T01:49:39;5.7;59.9
78514;SHT31;67814;51.976;5.810;2023-04-03T01:52:08;5.7;59.7
78514;SHT31;67814;51.976;5.810;2023-04-03T01:54:38;5.7;59.6
78514;SHT31;67814;51.976;5.810;2023-04-03T01:57:08;5.7;59.8
78514;SHT31;67814;51.976;5.810;2023-04-03T01:59:37;5.7;59.7
78514;SHT31;67814;51.976;5.810;2023-04-03T02:02:07;5.8;59.9
78514;SHT31;67814;51.976;5.810;2023-04-03T02:04:38;5.8;59.9
78514;SHT31;67814;51.976;5.810;2023-04-03T02:07:08;5.8;60.2
78514;SHT31;67814;51.976;5.810;2023-04-03T02:09:38;5.8;60.1
78514;SHT31;67814;51.976;5.810;2023-04-03T02:12:08;5.8;60.0
78514;SHT31;67814;51.976;5.810;2023-04-03T02:14:37;5.8;60.1
78514;SHT31;67814;51.976;5.810;2023-04-03T02:17:09;5.8;60.3
78514;SHT31;67814;51.976;5.810;2023-04-03T02:19:41;5.8;60.3
78514;SHT31;67814;51.976;5.810;2023-04-03T02:22:11;5.8;60.3
78514;SHT31;67814;51.976;5.810;2023-04-03T02:24:40;5.8;60.3
78514;SHT31;67814;51.976;5.810;2023-04-03T02:27:10;5.8;60.4
78514;SHT31;67814;51.976;5.810;2023-04-03T02:29:40;5.8;60.5
78514;SHT31;67814;51.976;5.810;2023-04-03T02:32:10;5.8;60.5
78514;SHT31;67814;51.976;5.810;2023-04-03T02:34:39;5.8;60.3
78514;SHT31;67814;51.976;5.810;2023-04-03T02:37:09;5.8;60.4
78514;SHT31;67814;51.976;5.810;2023-04-03T02:39:41;5.8;60.9
78514;SHT31;67814;51.976;5.810;2023-04-03T02:42:10;5.8;60.5
78514;SHT31;67814;51.976;5.810;2023-04-03T02:44:40;5.8;60.2
78514;SHT31;67814;51.976;5.810;2023-04-03T02:47:10;5.8;60.5
78514;SHT31;67814;51.976;5.810;2023-04-03T02:49:40;5.8;60.4
78514;SHT31;67814;51.976;5.810;2023-04-03T02:52:11;5.8;60.3
78514;SHT31;67814;51.976;5.810;2023-04-03T02:54:40;5.8;60.3
78514;SHT31;67814;51.976;5.810;2023-04-03T02:57:10;5.8;60.3
78514;SHT31;67814;51.976;5.810;2023-04-03T02:59:40;5.8;60.5
78514;SHT31;67814;51.976;5.810;2023-04-03T03:02:10;5.8;60.4
78514;SHT31;67814;51.976;5.810;2023-04-03T03:04:40;5.7;60.5
78514;SHT31;67814;51.976;5.810;2023-04-03T03:07:10;5.7;60.4
78514;SHT31;67814;51.976;5.810;2023-04-03T03:09:39;5.7;60.2
78514;SHT31;67814;51.976;5.810;2023-04-03T03:12:09;5.7;60.3
78514;SHT31;67814;51.976;5.810;2023-04-03T03:14:39;5.7;60.2
78514;SHT31;67814;51.976;5.810;2023-04-03T03:17:10;5.7;60.2
78514;SHT31;67814;51.976;5.810;2023-04-03T03:19:39;5.7;60.2
78514;SHT31;67814;51.976;5.810;2023-04-03T03:22:09;5.7;60.6
78514;SHT31;67814;51.976;5.810;2023-04-03T03:24:38;5.8;60.2
78514;SHT31;67814;51.976;5.810;2023-04-03T03:27:08;5.7;59.8
78514;SHT31;67814;51.976;5.810;2023-04-03T03:29:39;5.7;59.9
78514;SHT31;67814;51.976;5.810;2023-04-03T03:32:09;5.7;59.8
78514;SHT31;67814;51.976;5.810;2023-04-03T03:34:38;5.7;59.9
78514;SHT31;67814;51.976;5.810;2023-04-03T03:37:08;5.7;60.0
78514;SHT31;67814;51.976;5.810;2023-04-03T03:39:37;5.7;59.7
78514;SHT31;67814;51.976;5.810;2023-04-03T03:42:07;5.6;60.0
78514;SHT31;67814;51.976;5.810;2023-04-03T03:44:37;5.6;59.8
78514;SHT31;67814;51.976;5.810;2023-04-03T03:47:07;5.6;60.1
78514;SHT31;67814;51.976;5.810;2023-04-03T03:49:38;5.6;60.0
78514;SHT31;67814;51.976;5.810;2023-04-03T03:52:08;5.5;60.8
78514;SHT31;67814;51.976;5.810;2023-04-03T03:54:38;5.5;60.7
78514;SHT31;67814;51.976;5.810;2023-04-03T03:57:08;5.5;60.4
78514;SHT31;67814;51.976;5.810;2023-04-03T03:59:38;5.5;61.1
78514;SHT31;67814;51.976;5.810;2023-04-03T04:02:08;5.4;60.6
78514;SHT31;67814;51.976;5.810;2023-04-03T04:04:38;5.4;60.3
78514;SHT31;67814;51.976;5.810;2023-04-03T04:07:07;5.4;60.4
78514;SHT31;67814;51.976;5.810;2023-04-03T04:09:37;5.3;60.4
78514;SHT31;67814;51.976;5.810;2023-04-03T04:12:07;5.3;60.5
78514;SHT31;67814;51.976;5.810;2023-04-03T04:14:37;5.3;60.5
78514;SHT31;67814;51.976;5.810;2023-04-03T04:17:06;5.2;60.9
78514;SHT31;67814;51.976;5.810;2023-04-03T04:19:36;5.2;60.4
78514;SHT31;67814;51.976;5.810;2023-04-03T04:22:06;5.2;60.8
78514;SHT31;67814;51.976;5.810;2023-04-03T04:24:36;5.1;61.5
78514;SHT31;67814;51.976;5.810;2023-04-03T04:27:05;5.1;60.7
78514;SHT31;67814;51.976;5.810;2023-04-03T04:29:35;5.1;60.6
78514;SHT31;67814;51.976;5.810;2023-04-03T04:32:05;5.1;60.8
78514;SHT31;67814;51.976;5.810;2023-04-03T04:34:37;5.0;60.9
78514;SHT31;67814;51.976;5.810;2023-04-03T04:37:07;5.0;61.5
78514;SHT31;67814;51.976;5.810;2023-04-03T04:39:36;5.0;60.8
78514;SHT31;67814;51.976;5.810;2023-04-03T04:42:06;5.0;61.1
78514;SHT31;67814;51.976;5.810;2023-04-03T04:44:40;5.0;61.8
78514;SHT31;67814;51.976;5.810;2023-04-03T04:47:09;4.9;61.6
78514;SHT31;67814;51.976;5.810;2023-04-03T04:49:39;4.9;61.9
78514;SHT31;67814;51.976;5.810;2023-04-03T04:52:09;4.9;61.9
78514;SHT31;67814;51.976;5.810;2023-04-03T04:54:38;4.8;61.8
78514;SHT31;67814;51.976;5.810;2023-04-03T04:57:08;4.8;62.0
78514;SHT31;67814;51.976;5.810;2023-04-03T04:59:38;4.8;62.1
78514;SHT31;67814;51.976;5.810;2023-04-03T05:02:08;4.7;62.3
78514;SHT31;67814;51.976;5.810;2023-04-03T05:04:37;4.7;62.8
78514;SHT31;67814;51.976;5.810;2023-04-03T05:07:07;4.7;62.7
78514;SHT31;67814;51.976;5.810;2023-04-03T05:09:37;4.7;62.5
78514;SHT31;67814;51.976;5.810;2023-04-03T05:12:09;4.6;62.7
78514;SHT31;67814;51.976;5.810;2023-04-03T05:14:39;4.6;63.1
78514;SHT31;67814;51.976;5.810;2023-04-03T05:17:08;4.6;62.6
78514;SHT31;67814;51.976;5.810;2023-04-03T05:19:38;4.5;62.7
78514;SHT31;67814;51.976;5.810;2023-04-03T05:22:08;4.5;62.6
78514;SHT31;67814;51.976;5.810;2023-04-03T05:24:37;4.5;63.0
78514;SHT31;67814;51.976;5.810;2023-04-03T05:27:09;4.4;62.7
78514;SHT31;67814;51.976;5.810;2023-04-03T05:29:38;4.4;63.0
78514;SHT31;67814;51.976;5.810;2023-04-03T05:32:11;4.3;63.8
78514;SHT31;67814;51.976;5.810;2023-04-03T05:34:41;4.3;62.9
78514;SHT31;67814;51.976;5.810;2023-04-03T05:37:12;4.3;62.6
78514;SHT31;67814;51.976;5.810;2023-04-03T05:39:42;4.3;62.6
78514;SHT31;67814;51.976;5.810;2023-04-03T05:42:11;4.3;62.3
78514;SHT31;67814;51.976;5.810;2023-04-03T05:44:42;4.3;62.4
78514;SHT31;67814;51.976;5.810;2023-04-03T05:47:13;4.3;61.9
78514;SHT31;67814;51.976;5.810;2023-04-03T05:49:43;4.3;62.0
78514;SHT31;67814;51.976;5.810;2023-04-03T05:52:22;4.3;61.7
78514;SHT31;67814;51.976;5.810;2023-04-03T05:54:53;4.4;61.0
78514;SHT31;67814;51.976;5.810;2023-04-03T05:57:25;4.4;61.8
78514;SHT31;67814;51.976;5.810;2023-04-03T05:59:54;4.6;60.5
78514;SHT31;67814;51.976;5.810;2023-04-03T06:02:25;4.9;59.5
78514;SHT31;67814;51.976;5.810;2023-04-03T06:04:55;5.2;58.8
78514;SHT31;67814;51.976;5.810;2023-04-03T06:07:25;5.4;58.0
78514;SHT31;67814;51.976;5.810;2023-04-03T06:09:56;5.7;57.0
78514;SHT31;67814;51.976;5.810;2023-04-03T06:12:26;6.1;56.2
78514;SHT31;67814;51.976;5.810;2023-04-03T06:14:57;6.6;54.9
78514;SHT31;67814;51.976;5.810;2023-04-03T06:17:27;6.9;53.2
78514;SHT31;67814;51.976;5.810;2023-04-03T06:19:57;7.1;52.2
78514;SHT31;67814;51.976;5.810;2023-04-03T06:22:27;7.2;51.2
78514;SHT31;67814;51.976;5.810;2023-04-03T06:24:57;7.3;51.0
78514;SHT31;67814;51.976;5.810;2023-04-03T06:27:27;7.3;51.5
78514;SHT31;67814;51.976;5.810;2023-04-03T06:29:57;7.3;50.8
78514;SHT31;67814;51.976;5.810;2023-04-03T06:32:27;7.4;50.9
78514;SHT31;67814;51.976;5.810;2023-04-03T06:34:56;7.6;50.8
78514;SHT31;67814;51.976;5.810;2023-04-03T06:37:27;7.8;49.7
78514;SHT31;67814;51.976;5.810;2023-04-03T06:39:58;8.0;50.0
78514;SHT31;67814;51.976;5.810;2023-04-03T06:42:29;8.3;48.7
78514;SHT31;67814;51.976;5.810;2023-04-03T06:44:59;8.6;49.1
78514;SHT31;67814;51.976;5.810;2023-04-03T06:47:29;8.9;46.7
78514;SHT31;67814;51.976;5.810;2023-04-03T06:49:59;9.2;46.1
78514;SHT31;67814;51.976;5.810;2023-04-03T06:52:28;9.3;45.3
78514;SHT31;67814;51.976;5.810;2023-04-03T06:54:58;9.5;45.3
78514;SHT31;67814;51.976;5.810;2023-04-03T06:57:28;9.6;43.8
78514;SHT31;67814;51.976;5.810;2023-04-03T07:00:00;9.6;44.0
78514;SHT31;67814;51.976;5.810;2023-04-03T07:02:30;9.6;43.7
78514;SHT31;67814;51.976;5.810;2023-04-03T07:05:00;9.6;43.7
78514;SHT31;67814;51.976;5.810;2023-04-03T07:07:30;9.5;44.8
78514;SHT31;67814;51.976;5.810;2023-04-03T07:10:01;9.5;45.0
78514;SHT31;67814;51.976;5.810;2023-04-03T07:12:31;9.6;43.8
78514;SHT31;67814;51.976;5.810;2023-04-03T07:15:01;9.6;43.7
78514;SHT31;67814;51.976;5.810;2023-04-03T07:17:30;9.7;43.2
78514;SHT31;67814;51.976;5.810;2023-04-03T07:20:00;9.7;43.5
78514;SHT31;67814;51.976;5.810;2023-04-03T07:22:31;9.7;43.1
78514;SHT31;67814;51.976;5.810;2023-04-03T07:25:01;9.7;43.3
78514;SHT31;67814;51.976;5.810;2023-04-03T07:27:30;9.5;43.4
78514;SHT31;67814;51.976;5.810;2023-04-03T07:30:03;9.3;43.0
78514;SHT31;67814;51.976;5.810;2023-04-03T07:32:34;9.1;44.6
78514;SHT31;67814;51.976;5.810;2023-04-03T07:35:04;8.9;43.6
78514;SHT31;67814;51.976;5.810;2023-04-03T07:37:33;8.8;43.6
78514;SHT31;67814;51.976;5.810;2023-04-03T07:40:04;8.6;43.9
78514;SHT31;67814;51.976;5.810;2023-04-03T07:42:35;8.5;44.4
78514;SHT31;67814;51.976;5.810;2023-04-03T07:45:05;8.4;44.4
78514;SHT31;67814;51.976;5.810;2023-04-03T07:47:35;8.4;42.9
78514;SHT31;67814;51.976;5.810;2023-04-03T07:50:05;8.3;43.3
78514;SHT31;67814;51.976;5.810;2023-04-03T07:52:35;8.1;45.1
78514;SHT31;67814;51.976;5.810;2023-04-03T07:55:06;8.0;43.3
78514;SHT31;67814;51.976;5.810;2023-04-03T07:57:36;7.9;45.3
78514;SHT31;67814;51.976;5.810;2023-04-03T08:00:06;7.9;45.1
78514;SHT31;67814;51.976;5.810;2023-04-03T08:02:37;7.8;46.2
78514;SHT31;67814;51.976;5.810;2023-04-03T08:05:07;7.8;44.8
78514;SHT31;67814;51.976;5.810;2023-04-03T08:07:38;7.8;44.2
78514;SHT31;67814;51.976;5.810;2023-04-03T08:10:08;7.8;44.1
78514;SHT31;67814;51.976;5.810;2023-04-03T08:12:40;7.7;44.9
78514;SHT31;67814;51.976;5.810;2023-04-03T08:15:10;7.7;43.1
78514;SHT31;67814;51.976;5.810;2023-04-03T08:17:40;7.7;43.9
78514;SHT31;67814;51.976;5.810;2023-04-03T08:20:13;7.7;42.6
78514;SHT31;67814;51.976;5.810;2023-04-03T08:22:43;7.7;43.4
78514;SHT31;67814;51.976;5.810;2023-04-03T08:25:12;7.7;42.9
78514;SHT31;67814;51.976;5.810;2023-04-03T08:27:43;7.7;39.5
78514;SHT31;67814;51.976;5.810;2023-04-03T08:30:14;7.7;41.0
78514;SHT31;67814;51.976;5.810;2023-04-03T08:32:44;7.8;41.3
78514;SHT31;67814;51.976;5.810;2023-04-03T08:35:13;7.8;39.5
78514;SHT31;67814;51.976;5.810;2023-04-03T08:37:43;7.8;40.3
78514;SHT31;67814;51.976;5.810;2023-04-03T08:40:15;7.8;40.7
78514;SHT31;67814;51.976;5.810;2023-04-03T08:42:52;7.8;38.6
78514;SHT31;67814;51.976;5.810;2023-04-03T08:45:31;7.9;38.1
78514;SHT31;67814;51.976;5.810;2023-04-03T08:48:06;7.9;37.4
78514;SHT31;67814;51.976;5.810;2023-04-03T08:50:40;7.9;37.7
78514;SHT31;67814;51.976;5.810;2023-04-03T08:53:15;7.9;38.8
78514;SHT31;67814;51.976;5.810;2023-04-03T08:55:47;8.0;38.7
78514;SHT31;67814;51.976;5.810;2023-04-03T08:58:20;8.0;36.8
78514;SHT31;67814;51.976;5.810;2023-04-03T09:00:56;8.1;37.1
78514;SHT31;67814;51.976;5.810;2023-04-03T09:03:30;8.1;35.1
78514;SHT31;67814;51.976;5.810;2023-04-03T09:06:05;8.2;34.4
78514;SHT31;67814;51.976;5.810;2023-04-03T09:08:43;8.2;34.9
78514;SHT31;67814;51.976;5.810;2023-04-03T09:11:23;8.3;35.4
78514;SHT31;67814;51.976;5.810;2023-04-03T09:14:01;8.4;36.6
78514;SHT31;67814;51.976;5.810;2023-04-03T09:16:43;8.4;36.0
78514;SHT31;67814;51.976;5.810;2023-04-03T09:19:24;8.5;32.2
78514;SHT31;67814;51.976;5.810;2023-04-03T09:22:02;8.6;31.3
78514;SHT31;67814;51.976;5.810;2023-04-03T09:24:34;8.6;30.7
78514;SHT31;67814;51.976;5.810;2023-04-03T09:27:07;8.6;32.2
78514;SHT31;67814;51.976;5.810;2023-04-03T09:29:40;8.6;32.7
78514;SHT31;67814;51.976;5.810;2023-04-03T09:32:19;8.6;30.4
78514;SHT31;67814;51.976;5.810;2023-04-03T09:34:52;8.7;30.0
78514;SHT31;67814;51.976;5.810;2023-04-03T09:37:38;8.7;29.1
78514;SHT31;67814;51.976;5.810;2023-04-03T09:40:32;8.7;28.1
78514;SHT31;67814;51.976;5.810;2023-04-03T09:44:17;8.7;28.3
78514;SHT31;67814;51.976;5.810;2023-04-03T09:46:49;8.7;29.6
78514;SHT31;67814;51.976;5.810;2023-04-03T09:49:21;8.7;30.9
78514;SHT31;67814;51.976;5.810;2023-04-03T09:51:51;8.8;30.8
78514;SHT31;67814;51.976;5.810;2023-04-03T09:54:32;8.8;29.7
78514;SHT31;67814;51.976;5.810;2023-04-03T09:57:07;8.9;30.0
78514;SHT31;67814;51.976;5.810;2023-04-03T09:59:42;8.9;30.1
78514;SHT31;67814;51.976;5.810;2023-04-03T10:02:35;9.0;30.0
78514;SHT31;67814;51.976;5.810;2023-04-03T10:05:28;9.0;28.7
78514;SHT31;67814;51.976;5.810;2023-04-03T10:08:20;9.0;28.7
78514;SHT31;67814;51.976;5.810;2023-04-03T10:11:13;9.1;28.9
78514;SHT31;67814;51.976;5.810;2023-04-03T10:13:54;9.1;30.4
78514;SHT31;67814;51.976;5.810;2023-04-03T10:16:35;9.1;29.3
78514;SHT31;67814;51.976;5.810;2023-04-03T10:19:16;9.1;30.3
78514;SHT31;67814;51.976;5.810;2023-04-03T10:21:52;9.1;29.1
78514;SHT31;67814;51.976;5.810;2023-04-03T10:24:28;9.2;29.9
78514;SHT31;67814;51.976;5.810;2023-04-03T10:27:05;9.2;29.6
78514;SHT31;67814;51.976;5.810;2023-04-03T10:29:49;9.2;29.2
78514;SHT31;67814;51.976;5.810;2023-04-03T10:32:42;9.3;31.9
78514;SHT31;67814;51.976;5.810;2023-04-03T10:35:18;9.3;30.6
78514;SHT31;67814;51.976;5.810;2023-04-03T10:38:03;9.4;30.5
78514;SHT31;67814;51.976;5.810;2023-04-03T10:40:43;9.4;31.1
78514;SHT31;67814;51.976;5.810;2023-04-03T10:43:20;9.4;31.8
78514;SHT31;67814;51.976;5.810;2023-04-03T10:45:58;9.5;31.2
78514;SHT31;67814;51.976;5.810;2023-04-03T10:48:43;9.5;29.4
78514;SHT31;67814;51.976;5.810;2023-04-03T10:51:25;9.6;29.5
78514;SHT31;67814;51.976;5.810;2023-04-03T10:54:04;9.6;30.4
78514;SHT31;67814;51.976;5.810;2023-04-03T10:56:40;9.6;31.7
78514;SHT31;67814;51.976;5.810;2023-04-03T10:59:23;9.6;31.6
78514;SHT31;67814;51.976;5.810;2023-04-03T11:01:56;9.7;31.4
78514;SHT31;67814;51.976;5.810;2023-04-03T11:04:36;9.7;32.1
78514;SHT31;67814;51.976;5.810;2023-04-03T11:07:16;9.8;30.7
78514;SHT31;67814;51.976;5.810;2023-04-03T11:09:53;9.8;31.6
78514;SHT31;67814;51.976;5.810;2023-04-03T11:12:31;9.9;31.3
78514;SHT31;67814;51.976;5.810;2023-04-03T11:15:04;9.9;32.4
78514;SHT31;67814;51.976;5.810;2023-04-03T11:17:39;10.0;31.1
78514;SHT31;67814;51.976;5.810;2023-04-03T11:20:19;10.0;29.8
78514;SHT31;67814;51.976;5.810;2023-04-03T11:23:00;10.1;30.4
78514;SHT31;67814;51.976;5.810;2023-04-03T11:25:34;10.1;31.3
78514;SHT31;67814;51.976;5.810;2023-04-03T11:28:06;10.1;31.2
78514;SHT31;67814;51.976;5.810;2023-04-03T11:30:44;10.2;30.8
78514;SHT31;67814;51.976;5.810;2023-04-03T11:33:26;10.2;29.8
78514;SHT31;67814;51.976;5.810;2023-04-03T11:36:05;10.3;29.2
78514;SHT31;67814;51.976;5.810;2023-04-03T11:38:41;10.3;28.6
78514;SHT31;67814;51.976;5.810;2023-04-03T11:41:13;10.3;28.5
78514;SHT31;67814;51.976;5.810;2023-04-03T11:43:57;10.3;28.9
78514;SHT31;67814;51.976;5.810;2023-04-03T11:46:51;10.3;30.0
78514;SHT31;67814;51.976;5.810;2023-04-03T11:49:52;10.3;30.0
78514;SHT31;67814;51.976;5.810;2023-04-03T11:53:00;10.3;30.2
78514;SHT31;67814;51.976;5.810;2023-04-03T11:55:56;10.4;30.6
78514;SHT31;67814;51.976;5.810;2023-04-03T11:58:28;10.4;29.9
78514;SHT31;67814;51.976;5.810;2023-04-03T12:01:00;10.4;30.2
78514;SHT31;67814;51.976;5.810;2023-04-03T12:04:14;10.5;30.7
78514;SHT31;67814;51.976;5.810;2023-04-03T12:06:53;10.5;31.0
78514;SHT31;67814;51.976;5.810;2023-04-03T12:09:33;10.5;30.8
78514;SHT31;67814;51.976;5.810;2023-04-03T12:12:28;10.5;31.9
78514;SHT31;67814;51.976;5.810;2023-04-03T12:19:30;10.6;30.4
78514;SHT31;67814;51.976;5.810;2023-04-03T12:22:18;10.7;31.2
78514;SHT31;67814;51.976;5.810;2023-04-03T12:24:50;10.7;30.2
78514;SHT31;67814;51.976;5.810;2023-04-03T12:27:34;10.7;30.3
78514;SHT31;67814;51.976;5.810;2023-04-03T12:30:14;10.8;30.2
78514;SHT31;67814;51.976;5.810;2023-04-03T12:33:17;10.8;29.8
78514;SHT31;67814;51.976;5.810;2023-04-03T12:36:02;10.8;29.7
78514;SHT31;67814;51.976;5.810;2023-04-03T12:40:02;10.8;30.8
78514;SHT31;67814;51.976;5.810;2023-04-03T12:42:59;10.8;31.3
78514;SHT31;67814;51.976;5.810;2023-04-03T12:45:42;10.8;30.8
78514;SHT31;67814;51.976;5.810;2023-04-03T12:48:22;10.8;30.9
78514;SHT31;67814;51.976;5.810;2023-04-03T12:50:53;10.8;31.5
78514;SHT31;67814;51.976;5.810;2023-04-03T12:53:26;10.8;31.6
78514;SHT31;67814;51.976;5.810;2023-04-03T12:56:24;10.8;30.9
78514;SHT31;67814;51.976;5.810;2023-04-03T12:58:56;10.8;29.1
78514;SHT31;67814;51.976;5.810;2023-04-03T13:01:30;10.8;30.3
78514;SHT31;67814;51.976;5.810;2023-04-03T13:03:59;10.8;30.4
78514;SHT31;67814;51.976;5.810;2023-04-03T13:06:34;10.7;30.1
78514;SHT31;67814;51.976;5.810;2023-04-03T13:09:19;10.7;30.4
78514;SHT31;67814;51.976;5.810;2023-04-03T13:11:56;10.7;32.3
78514;SHT31;67814;51.976;5.810;2023-04-03T13:14:28;10.8;30.4
78514;SHT31;67814;51.976;5.810;2023-04-03T13:17:05;10.8;30.6
78514;SHT31;67814;51.976;5.810;2023-04-03T13:19:36;10.8;31.0
78514;SHT31;67814;51.976;5.810;2023-04-03T13:22:16;10.9;32.0
78514;SHT31;67814;51.976;5.810;2023-04-03T13:24:50;10.9;31.7
78514;SHT31;67814;51.976;5.810;2023-04-03T13:27:20;10.9;30.8
78514;SHT31;67814;51.976;5.810;2023-04-03T13:29:53;11.0;31.7
78514;SHT31;67814;51.976;5.810;2023-04-03T13:32:28;11.0;31.0
78514;SHT31;67814;51.976;5.810;2023-04-03T13:35:01;11.0;30.8
78514;SHT31;67814;51.976;5.810;2023-04-03T13:37:34;11.0;31.6
78514;SHT31;67814;51.976;5.810;2023-04-03T13:40:12;11.0;30.8
78514;SHT31;67814;51.976;5.810;2023-04-03T13:42:42;11.0;30.6
78514;SHT31;67814;51.976;5.810;2023-04-03T13:45:19;11.0;30.1
78514;SHT31;67814;51.976;5.810;2023-04-03T13:47:53;11.0;29.7
78514;SHT31;67814;51.976;5.810;2023-04-03T13:50:25;10.9;31.1
78514;SHT31;67814;51.976;5.810;2023-04-03T13:53:02;10.9;30.5
78514;SHT31;67814;51.976;5.810;2023-04-03T13:55:50;10.9;30.6
78514;SHT31;67814;51.976;5.810;2023-04-03T13:58:23;10.9;30.6
78514;SHT31;67814;51.976;5.810;2023-04-03T14:00:56;10.9;30.4
78514;SHT31;67814;51.976;5.810;2023-04-03T14:03:32;10.9;30.5
78514;SHT31;67814;51.976;5.810;2023-04-03T14:06:05;10.9;30.3
78514;SHT31;67814;51.976;5.810;2023-04-03T14:08:35;10.9;31.3
78514;SHT31;67814;51.976;5.810;2023-04-03T14:11:04;10.9;32.0
78514;SHT31;67814;51.976;5.810;2023-04-03T14:13:35;11.0;32.8
78514;SHT31;67814;51.976;5.810;2023-04-03T14:16:05;11.0;33.1
78514;SHT31;67814;51.976;5.810;2023-04-03T14:18:35;11.0;32.1
78514;SHT31;67814;51.976;5.810;2023-04-03T14:21:04;11.0;33.0
78514;SHT31;67814;51.976;5.810;2023-04-03T14:23:34;11.0;32.3
78514;SHT31;67814;51.976;5.810;2023-04-03T14:26:07;11.1;32.0
78514;SHT31;67814;51.976;5.810;2023-04-03T14:28:37;11.1;32.3
78514;SHT31;67814;51.976;5.810;2023-04-03T14:31:09;11.1;32.2
78514;SHT31;67814;51.976;5.810;2023-04-03T14:33:39;11.1;32.4
78514;SHT31;67814;51.976;5.810;2023-04-03T14:36:16;11.1;32.2
78514;SHT31;67814;51.976;5.810;2023-04-03T14:38:48;11.1;33.2
78514;SHT31;67814;51.976;5.810;2023-04-03T14:41:21;11.2;33.2
78514;SHT31;67814;51.976;5.810;2023-04-03T14:43:52;11.2;34.1
78514;SHT31;67814;51.976;5.810;2023-04-03T14:46:26;11.2;32.3
78514;SHT31;67814;51.976;5.810;2023-04-03T14:48:58;11.2;34.2
78514;SHT31;67814;51.976;5.810;2023-04-03T14:51:28;11.2;32.6
78514;SHT31;67814;51.976;5.810;2023-04-03T14:53:57;11.2;33.2
78514;SHT31;67814;51.976;5.810;2023-04-03T14:56:29;11.2;32.4
78514;SHT31;67814;51.976;5.810;2023-04-03T14:59:00;11.2;32.7
78514;SHT31;67814;51.976;5.810;2023-04-03T15:01:30;11.2;33.1
78514;SHT31;67814;51.976;5.810;2023-04-03T15:04:00;11.2;32.9
78514;SHT31;67814;51.976;5.810;2023-04-03T15:06:30;11.2;33.5
78514;SHT31;67814;51.976;5.810;2023-04-03T15:09:01;11.1;33.9
78514;SHT31;67814;51.976;5.810;2023-04-03T15:11:31;11.1;33.7
78514;SHT31;67814;51.976;5.810;2023-04-03T15:14:01;11.1;34.0
78514;SHT31;67814;51.976;5.810;2023-04-03T15:16:30;11.1;34.4
78514;SHT31;67814;51.976;5.810;2023-04-03T15:19:00;11.0;34.9
78514;SHT31;67814;51.976;5.810;2023-04-03T15:21:30;11.0;34.5
78514;SHT31;67814;51.976;5.810;2023-04-03T15:23:59;11.0;35.0
78514;SHT31;67814;51.976;5.810;2023-04-03T15:26:29;11.0;34.4
78514;SHT31;67814;51.976;5.810;2023-04-03T15:29:01;11.0;34.3
78514;SHT31;67814;51.976;5.810;2023-04-03T15:31:32;11.0;34.3
78514;SHT31;67814;51.976;5.810;2023-04-03T15:34:02;11.0;34.7
78514;SHT31;67814;51.976;5.810;2023-04-03T15:36:32;11.0;33.9
78514;SHT31;67814;51.976;5.810;2023-04-03T15:39:02;11.0;33.7
78514;SHT31;67814;51.976;5.810;2023-04-03T15:41:32;11.0;34.2
78514;SHT31;67814;51.976;5.810;2023-04-03T15:44:04;11.0;34.1
78514;SHT31;67814;51.976;5.810;2023-04-03T15:46:34;11.0;33.7
78514;SHT31;67814;51.976;5.810;2023-04-03T15:49:04;11.0;34.0
78514;SHT31;67814;51.976;5.810;2023-04-03T15:51:37;11.0;33.6
78514;SHT31;67814;51.976;5.810;2023-04-03T15:54:09;11.0;33.7
78514;SHT31;67814;51.976;5.810;2023-04-03T15:56:38;10.9;33.8
78514;SHT31;67814;51.976;5.810;2023-04-03T15:59:08;10.9;34.2
78514;SHT31;67814;51.976;5.810;2023-04-03T16:01:39;10.9;34.4
78514;SHT31;67814;51.976;5.810;2023-04-03T16:04:09;10.9;34.6
78514;SHT31;67814;51.976;5.810;2023-04-03T16:06:39;10.9;33.3
78514;SHT31;67814;51.976;5.810;2023-04-03T16:09:09;10.9;32.6
78514;SHT31;67814;51.976;5.810;2023-04-03T16:11:39;10.9;32.7
78514;SHT31;67814;51.976;5.810;2023-04-03T16:14:10;10.8;34.1
78514;SHT31;67814;51.976;5.810;2023-04-03T16:16:40;10.8;33.8
78514;SHT31;67814;51.976;5.810;2023-04-03T16:19:10;10.8;34.1
78514;SHT31;67814;51.976;5.810;2023-04-03T16:21:42;10.8;34.2
78514;SHT31;67814;51.976;5.810;2023-04-03T16:24:13;10.8;34.5
78514;SHT31;67814;51.976;5.810;2023-04-03T16:26:42;10.8;34.9
78514;SHT31;67814;51.976;5.810;2023-04-03T16:29:12;10.8;36.2
78514;SHT31;67814;51.976;5.810;2023-04-03T16:31:42;10.8;35.6
78514;SHT31;67814;51.976;5.810;2023-04-03T16:34:12;10.8;35.7
78514;SHT31;67814;51.976;5.810;2023-04-03T16:36:42;10.8;35.5
78514;SHT31;67814;51.976;5.810;2023-04-03T16:39:11;10.8;34.7
78514;SHT31;67814;51.976;5.810;2023-04-03T16:41:41;10.8;34.9
78514;SHT31;67814;51.976;5.810;2023-04-03T16:44:12;10.8;35.3
78514;SHT31;67814;51.976;5.810;2023-04-03T16:46:43;10.7;34.6
78514;SHT31;67814;51.976;5.810;2023-04-03T16:49:13;10.7;34.2
78514;SHT31;67814;51.976;5.810;2023-04-03T16:51:42;10.7;34.6
78514;SHT31;67814;51.976;5.810;2023-04-03T16:54:12;10.6;34.8
78514;SHT31;67814;51.976;5.810;2023-04-03T16:56:42;10.6;35.0
78514;SHT31;67814;51.976;5.810;2023-04-03T16:59:13;10.6;35.5
78514;SHT31;67814;51.976;5.810;2023-04-03T17:01:44;10.6;35.5